Time;durP1;ratioP1;P1;durP2;ratioP2;P2;SDS_P1;SDS_P2;PMS_P1;PMS_P2;Temp;Humidity;BMP_temperature;BMP_pressure;BME280_temperature;BME280_humidity;BME280_pressure;Samples;Min_cycle;Max_cycle;Signal;HPM_P1;HPM_P2
2023/01/31 05:13:02;;;;;;;2.58;1.62;;;;;;;1.56;100.00;100185.13;5556768;32;210838;-89
2023/01/31 05:16:09;;;;;;;4.45;1.87;;;;;;;1.50;100.00;100190.44;5544835;32;34358;-89
2023/01/31 05:19:14;;;;;;;2.45;1.60;;;;;;;1.42;100.00;100177.47;5546272;32;33961;-89
2023/01/31 05:22:21;;;;;;;5.12;2.10;;;;;;;1.40;100.00;100174.03;5545932;32;33499;-89
2023/01/31 05:25:25;;;;;;;2.80;1.83;;;;;;;1.35;100.00;100171.47;5545480;32;34396;-89
2023/01/31 05:28:28;;;;;;;4.97;1.87;;;;;;;1.30;100.00;100182.00;5548586;32;33930;-89
2023/01/31 05:31:31;;;;;;;3.20;1.80;;;;;;;1.24;100.00;100171.63;5540544;32;33695;-89
2023/01/31 05:34:34;;;;;;;2.72;1.95;;;;;;;1.28;100.00;100165.50;5526960;32;34314;-87
2023/01/31 05:37:41;;;;;;;3.87;2.15;;;;;;;1.22;100.00;100170.81;5527576;32;34087;-87
2023/01/31 05:40:44;;;;;;;4.70;2.53;;;;;;;1.07;100.00;100167.50;5526315;32;33931;-89
2023/01/31 05:43:47;;;;;;;5.12;2.40;;;;;;;1.02;100.00;100158.87;5528106;32;34224;-88
2023/01/31 05:46:50;;;;;;;5.62;2.65;;;;;;;0.98;100.00;100174.59;5528221;32;33771;-89
2023/01/31 05:49:54;;;;;;;4.30;2.58;;;;;;;0.96;100.00;100166.81;5526172;32;33860;-89
2023/01/31 05:52:58;;;;;;;5.30;3.33;;;;;;;1.00;100.00;100151.94;5546376;32;34153;-87
2023/01/31 05:56:01;;;;;;;4.18;2.95;;;;;;;0.90;100.00;100162.50;5554134;32;34071;-87
2023/01/31 05:59:04;;;;;;;6.47;3.00;;;;;;;0.92;100.00;100157.28;5552028;32;33952;-89
2023/01/31 06:02:10;;;;;;;6.35;2.87;;;;;;;0.94;100.00;100160.72;5555597;32;33959;-87
2023/01/31 06:05:13;;;;;;;4.15;2.80;;;;;;;1.02;100.00;100137.12;5548466;32;33879;-89
2023/01/31 06:08:16;;;;;;;8.00;2.97;;;;;;;1.14;100.00;100146.50;5541123;32;33656;-88
2023/01/31 06:11:19;;;;;;;5.72;2.87;;;;;;;1.18;100.00;100141.25;5634399;26;34678;-88
2023/01/31 06:14:22;;;;;;;5.25;2.45;;;;;;;1.22;100.00;100147.28;5575186;32;34185;-88
2023/01/31 06:17:25;;;;;;;6.55;2.35;;;;;;;1.25;100.00;100142.00;5567199;32;34648;-89
2023/01/31 06:20:30;;;;;;;4.32;2.25;;;;;;;1.33;100.00;100137.53;5614174;26;34946;-90
2023/01/31 06:23:34;;;;;;;5.45;2.30;;;;;;;1.34;100.00;100154.94;5556599;32;34286;-91
2023/01/31 06:26:37;;;;;;;5.80;2.40;;;;;;;1.37;100.00;100148.81;5553725;32;36921;-92
2023/01/31 06:29:40;;;;;;;4.32;2.42;;;;;;;1.38;100.00;100155.75;5539107;32;34258;-89
2023/01/31 06:32:43;;;;;;;6.55;2.10;;;;;;;1.44;100.00;100178.31;5547500;32;33786;-89
2023/01/31 06:35:46;;;;;;;4.47;2.40;;;;;;;1.42;100.00;100177.47;5539004;32;33707;-89
2023/01/31 06:38:52;;;;;;;4.80;2.22;;;;;;;1.40;100.00;100179.25;5544204;32;35015;-88
2023/01/31 06:41:55;;;;;;;4.15;2.30;;;;;;;1.34;100.00;100175.84;5541325;32;35311;-88
2023/01/31 06:44:58;;;;;;;5.18;2.12;;;;;;;1.36;100.00;100186.28;5537588;32;33511;-88
2023/01/31 06:48:01;;;;;;;2.92;2.10;;;;;;;1.44;100.00;100175.69;5548472;32;33883;-88
2023/01/31 06:51:04;;;;;;;4.97;2.00;;;;;;;1.43;100.00;100180.06;5548823;32;34618;-88
2023/01/31 06:54:07;;;;;;;7.25;2.03;;;;;;;1.48;100.00;100196.56;5565572;32;34854;-87
2023/01/31 06:57:09;;;;;;;3.78;2.53;;;;;;;1.59;100.00;100200.75;5556134;32;35479;-88
2023/01/31 07:00:13;;;;;;;10.05;2.50;;;;;;;1.52;100.00;100209.56;5549155;32;33977;-89
2023/01/31 07:03:15;;;;;;;6.45;2.30;;;;;;;1.50;100.00;100216.59;5563793;32;34792;-88
2023/01/31 07:06:20;;;;;;;7.68;2.15;;;;;;;1.56;100.00;100204.25;5562440;32;34153;-88
2023/01/31 07:09:23;;;;;;;5.10;2.10;;;;;;;1.61;100.00;100214.69;5552859;32;34123;-89
2023/01/31 07:12:26;;;;;;;5.70;2.40;;;;;;;1.64;100.00;100211.13;5560103;32;33819;-88
2023/01/31 07:15:29;;;;;;;4.72;2.00;;;;;;;1.68;100.00;100207.59;5552875;32;33770;-88
2023/01/31 07:18:33;;;;;;;5.60;2.05;;;;;;;1.70;100.00;100216.25;5541268;32;34344;-88
2023/01/31 07:21:35;;;;;;;4.05;2.00;;;;;;;1.76;100.00;100224.00;5541631;32;33512;-88
2023/01/31 07:24:39;;;;;;;8.80;3.35;;;;;;;1.78;100.00;100227.47;5557590;32;34820;-86
2023/01/31 07:27:41;;;;;;;4.87;2.22;;;;;;;1.83;100.00;100236.13;5546274;32;35125;-84
2023/01/31 07:30:45;;;;;;;6.18;2.62;;;;;;;1.86;100.00;100238.69;5538418;32;33878;-87
2023/01/31 07:33:48;;;;;;;5.87;2.20;;;;;;;1.95;100.00;100237.66;5544147;32;32773;-87
2023/01/31 07:36:51;;;;;;;5.07;2.10;;;;;;;1.95;100.00;100271.69;5554287;32;33884;-87
2023/01/31 07:39:53;;;;;;;5.30;2.28;;;;;;;2.00;100.00;100271.59;5548554;32;33880;-87
2023/01/31 07:42:58;;;;;;;2.55;1.80;;;;;;;2.02;100.00;100270.69;5543122;32;34077;-88
2023/01/31 07:46:04;;;;;;;9.93;2.45;;;;;;;2.11;100.00;100276.69;5546454;32;34236;-86
2023/01/31 07:49:09;;;;;;;4.18;1.80;;;;;;;2.06;100.00;100268.88;5543395;32;34027;-87
2023/01/31 07:52:12;;;;;;;2.17;1.90;;;;;;;2.13;100.00;100280.13;5529934;32;34781;-87
2023/01/31 07:55:15;;;;;;;6.95;2.33;;;;;;;2.15;100.00;100300.16;5533298;32;33873;-87
2023/01/31 07:58:17;;;;;;;4.22;2.00;;;;;;;2.16;100.00;100293.16;5533784;32;34065;-87
2023/01/31 08:04:45;;;;;;;5.28;1.90;;;;;;;2.23;100.00;100305.28;5533436;32;33984;-85
2023/01/31 08:08:09;;;;;;;7.12;1.98;;;;;;;2.31;100.00;100304.28;5537746;32;34617;-86
2023/01/31 08:11:11;;;;;;;4.28;1.92;;;;;;;2.28;100.00;100302.56;5539978;32;34264;-91
2023/01/31 08:14:15;;;;;;;4.82;2.08;;;;;;;2.40;100.00;100317.19;5538299;32;34319;-90
2023/01/31 08:17:18;;;;;;;3.47;1.40;;;;;;;2.45;100.00;100315.37;5546490;32;33933;-87
2023/01/31 08:20:21;;;;;;;6.10;1.70;;;;;;;2.43;100.00;100310.16;5542379;32;33731;-86
2023/01/31 08:23:25;;;;;;;2.92;1.52;;;;;;;2.42;100.00;100332.00;5542000;32;34538;-86
2023/01/31 08:26:28;;;;;;;3.35;1.77;;;;;;;2.43;100.00;100352.03;5541461;32;33876;-87
2023/01/31 08:29:31;;;;;;;2.90;1.40;;;;;;;2.49;100.00;100345.87;5538769;32;33945;-86
2023/01/31 08:32:34;;;;;;;4.43;2.10;;;;;;;2.52;100.00;100369.37;5540794;32;33882;-86
2023/01/31 08:35:37;;;;;;;4.15;1.87;;;;;;;2.64;100.00;100377.91;5531405;32;34041;-85
2023/01/31 08:38:39;;;;;;;3.72;1.90;;;;;;;2.62;100.00;100380.56;5531000;32;34614;-86
2023/01/31 08:41:43;;;;;;;5.10;1.55;;;;;;;2.74;100.00;100383.84;5533013;32;34076;-87
2023/01/31 08:44:45;;;;;;;3.08;1.85;;;;;;;2.71;100.00;100391.78;5542694;32;32818;-86
2023/01/31 08:47:54;;;;;;;5.60;1.95;;;;;;;2.79;100.00;100400.38;5539853;32;33849;-87
2023/01/31 08:51:03;;;;;;;4.03;1.83;;;;;;;2.89;100.00;100422.03;5533880;32;34749;-87
2023/01/31 08:54:08;;;;;;;2.03;1.60;;;;;;;2.89;100.00;100429.91;5545413;32;32656;-86
2023/01/31 08:57:11;;;;;;;6.12;2.22;;;;;;;2.93;100.00;100428.97;5543969;32;33772;-87
2023/01/31 09:00:15;;;;;;;3.10;1.70;;;;;;;2.97;100.00;100438.50;5535334;32;34017;-86
2023/01/31 09:03:18;;;;;;;9.23;2.10;;;;;;;2.97;100.00;100438.50;5537717;32;34937;-85
2023/01/31 09:06:22;;;;;;;4.93;2.05;;;;;;;3.09;100.00;100430.44;5537426;32;34228;-86
2023/01/31 09:09:25;;;;;;;4.65;1.92;;;;;;;3.27;100.00;100435.38;5536606;32;34299;-85
2023/01/31 09:12:34;;;;;;;5.45;2.40;;;;;;;3.93;100.00;100445.44;5539436;32;34007;-87
2023/01/31 09:15:37;;;;;;;6.10;2.08;;;;;;;4.66;100.00;100435.94;5531342;32;34040;-88
2023/01/31 09:18:41;;;;;;;7.65;1.90;;;;;;;5.78;92.75;100454.06;5536442;32;33742;-85
2023/01/31 09:21:44;;;;;;;5.72;1.62;;;;;;;5.71;90.22;100450.75;5537639;32;34132;-85
2023/01/31 09:24:47;;;;;;;4.65;2.20;;;;;;;7.12;86.12;100461.41;5546221;32;33739;-86
2023/01/31 09:27:51;;;;;;;4.97;1.98;;;;;;;6.58;83.15;100469.28;5540896;32;34648;-86
2023/01/31 09:30:54;;;;;;;8.50;2.20;;;;;;;7.39;80.58;100465.78;5537280;32;34180;-86
2023/01/31 09:33:57;;;;;;;3.53;1.70;;;;;;;7.95;78.68;100479.62;5530717;32;33491;-86
2023/01/31 09:37:01;;;;;;;6.18;2.17;;;;;;;8.56;73.16;100469.41;5529425;32;33807;-86
2023/01/31 09:40:05;;;;;;;3.62;1.85;;;;;;;7.69;75.62;100476.12;5545225;32;33624;-87
2023/01/31 09:43:11;;;;;;;3.65;1.80;;;;;;;8.05;76.28;100477.50;5545860;32;34791;-85
2023/01/31 09:46:19;;;;;;;5.30;1.90;;;;;;;8.11;73.89;100468.47;5543937;32;34266;-85
2023/01/31 09:49:31;;;;;;;2.85;1.65;;;;;;;8.34;71.66;100475.50;5540148;32;33478;-87
2023/01/31 09:52:33;;;;;;;3.87;1.50;;;;;;;10.09;67.05;100480.56;5540131;32;33933;-86
2023/01/31 09:55:52;;;;;;;3.20;1.60;;;;;;;8.32;71.31;100477.34;5552781;32;33961;-86
2023/01/31 09:59:06;;;;;;;3.45;1.85;;;;;;;6.50;80.96;100491.50;5552085;32;33930;-88
2023/01/31 10:02:27;;;;;;;3.92;1.80;;;;;;;5.69;85.93;100485.91;5560279;32;34666;-86
2023/01/31 10:05:48;;;;;;;;;;;;;;;4.95;91.75;100476.41;5555321;32;35277;-87
2023/01/31 10:08:57;;;;;;;5.87;2.03;;;;;;;4.69;94.35;100493.69;5548135;32;34854;-87
2023/01/31 10:12:23;;;;;;;;;;;;;;;5.25;93.23;100484.44;5546973;32;34695;-86
2023/01/31 10:15:33;;;;;;;4.50;1.95;;;;;;;5.79;90.40;100490.88;5549681;32;35192;-85
2023/01/31 10:18:48;;;;;;;5.68;2.17;;;;;;;5.61;90.44;100492.25;5544958;32;33829;-87
2023/01/31 10:21:56;;;;;;;4.25;1.77;;;;;;;6.71;86.46;100488.22;5549039;32;34775;-86
2023/01/31 10:25:16;;;;;;;3.55;1.90;;;;;;;7.01;79.14;100487.25;5547553;32;34323;-86
2023/01/31 10:28:41;;;;;;;3.70;1.87;;;;;;;6.84;90.43;100480.75;5538730;32;35324;-88
2023/01/31 10:32:12;;;;;;;8.80;2.05;;;;;;;7.05;84.84;100473.06;5550396;32;35014;-93
2023/01/31 10:35:22;;;;;;;4.37;2.10;;;;;;;6.87;85.17;100479.78;5546165;32;34026;-89
2023/01/31 10:38:31;;;;;;;5.10;1.85;;;;;;;6.71;81.69;100464.50;5535895;32;33860;-88
2023/01/31 10:41:43;;;;;;;4.90;1.87;;;;;;;7.19;82.26;100474.37;5538592;32;34099;-88
2023/01/31 10:44:56;;;;;;;8.77;2.78;;;;;;;6.83;79.17;100468.50;5546576;32;34338;-88
2023/01/31 10:48:24;;;;;;;4.95;2.47;;;;;;;7.62;80.16;100467.59;5548950;32;34000;-87
2023/01/31 10:51:43;;;;;;;6.32;1.85;;;;;;;6.79;77.72;100472.13;5551961;32;33598;-91
2023/01/31 10:54:52;;;;;;;6.37;1.80;;;;;;;6.82;82.10;100471.16;5550970;32;35120;-88
2023/01/31 10:57:57;;;;;;;6.12;2.20;;;;;;;6.84;83.55;100458.81;5537573;32;34115;-88
2023/01/31 11:01:04;;;;;;;6.43;2.10;;;;;;;6.92;78.84;100450.63;5548720;32;33786;-88
2023/01/31 11:04:23;;;;;;;4.22;1.65;;;;;;;6.70;77.56;100456.63;5552937;32;34491;-89
2023/01/31 11:07:31;;;;;;;4.95;2.15;;;;;;;6.39;72.73;100455.81;5546496;32;34335;-91
2023/01/31 11:10:50;;;;;;;4.53;1.50;;;;;;;6.13;75.94;100443.44;5537598;32;34977;-92
2023/01/31 11:13:59;;;;;;;3.25;1.42;;;;;;;6.25;74.61;100431.66;5549565;32;34094;-88
2023/01/31 11:17:02;;;;;;;7.07;1.98;;;;;;;6.00;78.06;100443.78;5537118;32;34580;-87
2023/01/31 11:20:06;;;;;;;4.20;1.50;;;;;;;6.25;77.87;100421.13;5545235;32;35137;-87
2023/01/31 11:23:20;;;;;;;2.65;1.48;;;;;;;8.29;68.99;100425.47;5541215;32;33826;-87
2023/01/31 11:26:30;;;;;;;2.92;1.65;;;;;;;9.51;61.92;100417.84;5548995;32;34013;-87
2023/01/31 11:29:38;;;;;;;5.67;1.57;;;;;;;7.59;66.77;100416.69;5552544;32;33694;-88
2023/01/31 11:32:42;;;;;;;5.87;1.90;;;;;;;7.21;69.27;100420.66;5540902;32;34141;-87
2023/01/31 11:35:51;;;;;;;4.03;2.05;;;;;;;6.49;70.60;100418.62;5546053;32;34930;-86
2023/01/31 11:38:54;;;;;;;2.37;1.58;;;;;;;6.28;70.55;100426.31;5535362;32;35413;-85
2023/01/31 11:42:15;;;;;;;7.03;2.85;;;;;;;7.27;70.27;100419.56;5543252;32;34606;-88
2023/01/31 11:45:21;;;;;;;2.87;1.50;;;;;;;9.23;60.49;100419.91;5553075;32;35206;-88
2023/01/31 11:48:41;;;;;;;6.87;2.28;;;;;;;8.08;67.13;100412.19;5546530;32;34908;-85
2023/01/31 11:51:44;;;;;;;2.55;1.60;;;;;;;8.33;66.31;100413.00;5544167;32;34809;-87
2023/01/31 11:55:05;;;;;;;1.90;1.15;;;;;;;7.28;65.89;100400.16;5541262;32;34292;-87
2023/01/31 11:58:19;;;;;;;5.40;2.25;;;;;;;6.44;68.43;100403.81;5546400;32;32670;-87
2023/01/31 12:01:25;;;;;;;3.17;1.37;;;;;;;6.45;68.28;100413.44;5540437;32;33521;-90
2023/01/31 12:04:38;;;;;;;5.18;1.77;;;;;;;5.94;67.12;100415.00;5543218;32;33480;-87
2023/01/31 12:07:49;;;;;;;2.87;1.60;;;;;;;5.53;68.32;100410.88;5542250;32;35113;-87
2023/01/31 12:14:39;;;;;;;2.58;1.65;;;;;;;5.48;69.44;100427.72;5357610;29;20128;-87
2023/01/31 12:21:51;;;;;;;3.22;1.48;;;;;;;5.53;71.17;100418.78;5342664;30;20116;-87
2023/01/31 12:25:02;;;;;;;2.90;1.30;;;;;;;5.33;71.52;100408.78;5527414;32;34667;-87
2023/01/31 12:28:14;;;;;;;4.07;1.55;;;;;;;5.41;72.05;100400.69;5515721;32;34021;-88
2023/01/31 12:31:36;;;;;;;3.45;1.60;;;;;;;5.45;71.56;100417.25;5512152;32;35180;-91
2023/01/31 12:35:03;;;;;;;3.00;1.62;;;;;;;5.25;70.70;100418.69;5523339;32;33854;-87
2023/01/31 12:38:30;;;;;;;7.90;1.40;;;;;;;5.38;70.24;100421.84;5515624;32;34242;-87
2023/01/31 12:41:38;;;;;;;3.12;1.45;;;;;;;5.27;71.27;100408.97;5519743;32;33806;-88
2023/01/31 12:44:48;;;;;;;4.65;1.62;;;;;;;5.34;70.83;100404.41;5521208;32;33809;-86
2023/01/31 12:48:10;;;;;;;2.83;1.62;;;;;;;5.13;72.52;100409.34;5516244;32;34573;-87
2023/01/31 12:51:44;;;;;;;5.50;1.92;;;;;;;5.24;74.02;100409.91;5527403;32;34011;-87
2023/01/31 12:54:56;;;;;;;4.62;1.98;;;;;;;5.36;73.84;100415.75;5521214;32;34237;-88
2023/01/31 12:58:27;;;;;;;5.03;1.98;;;;;;;5.31;74.81;100417.63;5526621;32;34009;-87
2023/01/31 13:02:08;;;;;;;5.00;1.87;;;;;;;5.08;75.76;100416.50;5517195;32;34095;-86
2023/01/31 13:05:50;;;;;;;5.72;1.70;;;;;;;5.13;75.37;100428.62;5521288;32;33808;-87
2023/01/31 13:09:00;;;;;;;2.40;1.27;;;;;;;4.99;73.98;100441.28;5538841;32;34607;-87
2023/01/31 13:12:15;;;;;;;3.53;1.05;;;;;;;4.61;75.34;100450.94;5526578;32;34657;-85
2023/01/31 13:15:28;;;;;;;2.85;1.25;;;;;;;4.42;75.78;100456.63;5513268;32;34840;-86
2023/01/31 13:18:34;;;;;;;3.45;1.45;;;;;;;4.50;76.35;100456.44;5523248;32;33887;-87
2023/01/31 13:21:44;;;;;;;2.60;1.10;;;;;;;4.61;75.82;100450.94;5538992;32;34252;-87
2023/01/31 13:24:52;;;;;;;;;;;;;;;4.66;76.37;100452.56;5629183;26;33954;-88
2023/01/31 13:28:04;;;;;;;6.10;1.62;;;;;;;4.68;77.48;100460.41;5615611;31;35483;-88
2023/01/31 13:31:45;;;;;;;2.83;1.37;;;;;;;4.76;77.63;100457.59;5660586;26;35282;31
2023/01/31 13:35:13;;;;;;;4.05;1.67;;;;;;;4.80;78.58;100460.13;5514510;32;36236;-88
2023/01/31 13:38:19;;;;;;;3.08;1.50;;;;;;;4.72;78.95;100469.94;5511858;32;34675;-87
2023/01/31 13:41:27;;;;;;;4.18;1.60;;;;;;;4.55;78.75;100471.22;5499821;32;34790;-88
2023/01/31 13:44:30;;;;;;;3.33;1.58;;;;;;;4.42;77.92;100481.13;5510487;32;33996;-88
2023/01/31 13:47:44;;;;;;;3.47;1.48;;;;;;;4.61;78.19;100482.47;5505880;32;34901;-89
2023/01/31 13:50:59;;;;;;;3.47;1.77;;;;;;;4.39;80.17;100469.84;5498056;32;33692;-88
2023/01/31 13:54:20;;;;;;;3.67;1.42;;;;;;;4.34;81.67;100475.19;5505929;32;34394;-89
2023/01/31 14:16:38;;;;;;;4.43;2.12;;;;;;;4.36;84.85;100473.38;4946551;30;20356;-90
2023/01/31 14:19:41;;;;;;;3.55;2.10;;;;;;;4.25;86.38;100485.88;5551232;32;33622;-88
2023/01/31 14:23:22;;;;;;;2.37;1.67;;;;;;;4.26;86.56;100500.75;5549678;32;34228;-88
2023/01/31 14:26:51;;;;;;;3.58;1.92;;;;;;;4.01;88.44;100498.63;5536216;32;35190;-87
2023/01/31 14:30:07;;;;;;;5.25;2.50;;;;;;;3.99;89.35;100500.44;5550193;32;33812;-87
2023/01/31 14:33:10;;;;;;;4.57;1.90;;;;;;;3.96;89.87;100493.50;5549686;32;33878;-87
2023/01/31 14:36:48;;;;;;;2.53;1.77;;;;;;;3.81;90.75;100491.19;5549357;32;32870;-88
2023/01/31 14:40:35;;;;;;;3.60;1.55;;;;;;;3.76;92.38;100493.88;5476534;32;34175;-89
2023/01/31 14:44:09;;;;;;;5.07;2.00;;;;;;;3.73;96.09;100500.03;5456074;32;34795;-87
2023/01/31 14:47:12;;;;;;;2.10;1.75;;;;;;;3.73;97.54;100494.81;5535710;32;33791;-87
2023/01/31 14:50:33;;;;;;;5.45;2.28;;;;;;;3.73;99.28;100499.19;5551393;32;33964;-89
2023/01/31 14:54:00;;;;;;;8.10;2.37;;;;;;;3.74;100.00;100491.31;5564506;32;35386;-88
2023/01/31 14:57:28;;;;;;;4.10;2.15;;;;;;;3.70;100.00;100500.12;5546802;32;34269;-89
2023/01/31 15:00:36;;;;;;;11.77;2.60;;;;;;;3.70;100.00;100501.87;5548730;32;33890;-87
2023/01/31 15:03:57;;;;;;;3.85;2.00;;;;;;;3.46;100.00;100491.81;5549198;32;34028;-91
2023/01/31 15:07:00;;;;;;;4.37;2.55;;;;;;;3.56;100.00;100487.25;5549588;32;33947;-87
2023/01/31 15:10:03;;;;;;;5.72;2.87;;;;;;;3.40;100.00;100493.66;5549603;32;34264;-87
2023/01/31 15:13:35;;;;;;;5.12;3.00;;;;;;;3.46;100.00;100490.94;5551263;32;33781;-88
2023/01/31 15:16:38;;;;;;;7.32;3.30;;;;;;;3.48;100.00;100486.56;5553546;32;35274;-87
2023/01/31 15:19:55;;;;;;;6.90;3.00;;;;;;;3.58;100.00;100508.22;5550808;32;34242;-87
2023/01/31 15:23:03;;;;;;;6.78;2.87;;;;;;;3.43;100.00;100507.63;5549955;32;34925;-88
2023/01/31 15:26:08;;;;;;;2.42;1.92;;;;;;;3.33;100.00;100508.66;5550709;32;34330;-86
2023/01/31 15:29:20;;;;;;;5.78;2.25;;;;;;;3.23;100.00;100513.22;5549394;32;33786;-86
2023/01/31 15:32:48;;;;;;;2.12;1.80;;;;;;;3.43;100.00;100510.25;5548122;32;34029;-87
2023/01/31 15:36:04;;;;;;;3.97;2.30;;;;;;;3.27;100.00;100511.41;5540622;32;34597;-87
2023/01/31 15:39:29;;;;;;;2.83;2.12;;;;;;;3.07;100.00;100509.97;5548147;32;35376;-87
2023/01/31 15:42:33;;;;;;;4.00;2.50;;;;;;;3.13;100.00;100501.13;5550572;32;34793;-91
2023/01/31 15:45:36;;;;;;;4.65;2.55;;;;;;;3.21;100.00;100504.47;5551736;32;34489;-91
2023/01/31 15:48:42;;;;;;;5.57;2.50;;;;;;;3.28;100.00;100500.88;5554981;32;33791;-88
2023/01/31 15:52:00;;;;;;;8.30;2.80;;;;;;;3.22;100.00;100493.97;5552396;32;34668;-87
2023/01/31 15:55:05;;;;;;;8.85;3.12;;;;;;;3.18;100.00;100504.56;5553290;32;33827;-87
2023/01/31 15:58:21;;;;;;;5.62;2.80;;;;;;;2.91;100.00;100509.38;5556675;32;33936;-87
2023/01/31 16:01:29;;;;;;;6.40;2.80;;;;;;;3.02;100.00;100512.66;5560362;32;34157;-87
2023/01/31 16:04:32;;;;;;;4.85;2.70;;;;;;;3.15;100.00;100513.34;5557060;32;33623;-87
2023/01/31 16:07:35;;;;;;;8.80;3.37;;;;;;;3.00;100.00;100514.44;5563914;32;34792;-87
2023/01/31 16:10:38;;;;;;;8.07;3.67;;;;;;;2.87;100.00;100513.75;5558625;32;34815;-87
2023/01/31 16:13:42;;;;;;;6.10;3.67;;;;;;;2.85;100.00;100512.09;5556542;32;33794;-87
2023/01/31 16:16:48;;;;;;;5.97;3.53;;;;;;;2.93;100.00;100515.44;5556944;32;34997;-87
2023/01/31 16:19:51;;;;;;;8.55;3.80;;;;;;;2.95;100.00;100513.66;5555646;32;35173;-87
2023/01/31 16:22:55;;;;;;;6.50;3.42;;;;;;;2.69;100.00;100509.69;5550166;32;33967;-87
2023/01/31 16:26:20;;;;;;;7.00;3.92;;;;;;;2.65;100.00;100503.62;5549873;32;35173;-87
